sensor_id;sensor_type;location;lat;lon;timestamp;temperature;humidity
3310;DHT22;1667;53.238;10.394;2023-01-15T00:02:02;10.60;99.90
3310;DHT22;1667;53.238;10.394;2023-01-15T00:07:02;10.50;99.90
3310;DHT22;1667;53.238;10.394;2023-01-15T00:12:02;10.50;99.90
3310;DHT22;1667;53.238;10.394;2023-01-15T00:17:00;10.50;99.90
3310;DHT22;1667;53.238;10.394;2023-01-15T00:21:59;10.50;99.90
3310;DHT22;1667;53.238;10.394;2023-01-15T00:26:59;10.50;99.90
3310;DHT22;1667;53.238;10.394;2023-01-15T00:39:04;10.50;99.90
3310;DHT22;1667;53.238;10.394;2023-01-15T00:44:04;10.40;99.90
3310;DHT22;1667;53.238;10.394;2023-01-15T00:49:03;10.40;99.90
3310;DHT22;1667;53.238;10.394;2023-01-15T00:54:02;10.30;99.90
3310;DHT22;1667;53.238;10.394;2023-01-15T00:59:01;10.30;99.90
3310;DHT22;1667;53.238;10.394;2023-01-15T01:04:02;10.20;99.90
3310;DHT22;1667;53.238;10.394;2023-01-15T01:09:04;10.20;99.90
3310;DHT22;1667;53.238;10.394;2023-01-15T01:14:02;10.20;99.90
3310;DHT22;1667;53.238;10.394;2023-01-15T01:19:05;10.20;99.90
3310;DHT22;1667;53.238;10.394;2023-01-15T01:24:05;10.10;99.90
3310;DHT22;1667;53.238;10.394;2023-01-15T01:29:04;10.10;99.90
3310;DHT22;1667;53.238;10.394;2023-01-15T01:34:04;10.00;99.90
3310;DHT22;1667;53.238;10.394;2023-01-15T01:39:04;10.00;99.90
3310;DHT22;1667;53.238;10.394;2023-01-15T01:44:04;10.00;99.90
3310;DHT22;1667;53.238;10.394;2023-01-15T01:49:09;9.90;99.90
3310;DHT22;1667;53.238;10.394;2023-01-15T01:54:09;9.90;99.90
3310;DHT22;1667;53.238;10.394;2023-01-15T01:59:09;9.90;99.90
3310;DHT22;1667;53.238;10.394;2023-01-15T02:04:11;9.80;99.90
3310;DHT22;1667;53.238;10.394;2023-01-15T02:09:10;9.80;99.90
3310;DHT22;1667;53.238;10.394;2023-01-15T02:14:13;9.70;99.90
3310;DHT22;1667;53.238;10.394;2023-01-15T02:19:22;9.70;99.90
3310;DHT22;1667;53.238;10.394;2023-01-15T02:24:32;9.70;99.90
3310;DHT22;1667;53.238;10.394;2023-01-15T02:29:41;9.70;99.90
3310;DHT22;1667;53.238;10.394;2023-01-15T02:34:45;9.70;99.90
3310;DHT22;1667;53.238;10.394;2023-01-15T02:46:37;9.60;99.90
3310;DHT22;1667;53.238;10.394;2023-01-15T02:51:42;9.60;99.90
3310;DHT22;1667;53.238;10.394;2023-01-15T02:56:43;9.60;99.90
3310;DHT22;1667;53.238;10.394;2023-01-15T03:01:47;9.60;99.90
3310;DHT22;1667;53.238;10.394;2023-01-15T03:06:51;9.90;99.90
3310;DHT22;1667;53.238;10.394;2023-01-15T03:11:58;9.50;99.90
3310;DHT22;1667;53.238;10.394;2023-01-15T03:17:12;9.50;99.90
3310;DHT22;1667;53.238;10.394;2023-01-15T03:22:18;9.50;99.90
3310;DHT22;1667;53.238;10.394;2023-01-15T03:27:19;9.50;99.90
3310;DHT22;1667;53.238;10.394;2023-01-15T03:32:24;9.50;99.90
3310;DHT22;1667;53.238;10.394;2023-01-15T03:37:24;9.40;99.90
3310;DHT22;1667;53.238;10.394;2023-01-15T03:42:39;9.40;99.90
3310;DHT22;1667;53.238;10.394;2023-01-15T03:47:49;9.40;99.90
3310;DHT22;1667;53.238;10.394;2023-01-15T03:52:57;9.40;99.90
3310;DHT22;1667;53.238;10.394;2023-01-15T03:58:07;9.30;99.90
3310;DHT22;1667;53.238;10.394;2023-01-15T04:03:13;9.30;99.90
3310;DHT22;1667;53.238;10.394;2023-01-15T04:08:13;9.30;99.90
3310;DHT22;1667;53.238;10.394;2023-01-15T04:13:16;9.30;99.90
3310;DHT22;1667;53.238;10.394;2023-01-15T04:18:16;9.20;99.90
3310;DHT22;1667;53.238;10.394;2023-01-15T04:23:15;9.20;99.90
3310;DHT22;1667;53.238;10.394;2023-01-15T04:28:14;9.20;99.90
3310;DHT22;1667;53.238;10.394;2023-01-15T04:33:12;9.10;99.90
3310;DHT22;1667;53.238;10.394;2023-01-15T04:38:12;9.00;99.90
3310;DHT22;1667;53.238;10.394;2023-01-15T04:43:11;9.10;99.90
3310;DHT22;1667;53.238;10.394;2023-01-15T04:48:27;9.00;99.90
3310;DHT22;1667;53.238;10.394;2023-01-15T04:53:29;9.00;99.90
3310;DHT22;1667;53.238;10.394;2023-01-15T04:58:27;9.00;99.90
3310;DHT22;1667;53.238;10.394;2023-01-15T05:03:26;8.90;99.90
3310;DHT22;1667;53.238;10.394;2023-01-15T05:08:24;8.90;99.90
3310;DHT22;1667;53.238;10.394;2023-01-15T05:13:24;8.60;99.90
3310;DHT22;1667;53.238;10.394;2023-01-15T05:18:23;8.80;99.90
3310;DHT22;1667;53.238;10.394;2023-01-15T05:30:12;8.70;99.90
3310;DHT22;1667;53.238;10.394;2023-01-15T05:35:12;8.70;99.90
3310;DHT22;1667;53.238;10.394;2023-01-15T05:40:11;8.60;99.90
3310;DHT22;1667;53.238;10.394;2023-01-15T05:45:10;8.70;99.90
3310;DHT22;1667;53.238;10.394;2023-01-15T05:50:11;8.60;99.90
3310;DHT22;1667;53.238;10.394;2023-01-15T05:55:09;8.70;99.90
3310;DHT22;1667;53.238;10.394;2023-01-15T06:00:09;8.60;99.90
3310;DHT22;1667;53.238;10.394;2023-01-15T06:05:12;8.50;99.90
3310;DHT22;1667;53.238;10.394;2023-01-15T06:10:10;8.50;99.90
3310;DHT22;1667;53.238;10.394;2023-01-15T06:15:10;8.40;99.90
3310;DHT22;1667;53.238;10.394;2023-01-15T06:20:12;8.40;99.90
3310;DHT22;1667;53.238;10.394;2023-01-15T06:25:11;8.40;99.90
3310;DHT22;1667;53.238;10.394;2023-01-15T06:30:11;8.30;99.90
3310;DHT22;1667;53.238;10.394;2023-01-15T06:35:11;8.30;99.90
3310;DHT22;1667;53.238;10.394;2023-01-15T06:40:11;8.20;99.90
3310;DHT22;1667;53.238;10.394;2023-01-15T06:45:10;8.10;99.90
3310;DHT22;1667;53.238;10.394;2023-01-15T06:50:28;8.10;99.90
3310;DHT22;1667;53.238;10.394;2023-01-15T06:55:26;8.10;99.90
3310;DHT22;1667;53.238;10.394;2023-01-15T07:00:25;8.10;99.90
3310;DHT22;1667;53.238;10.394;2023-01-15T07:05:24;8.10;99.90
3310;DHT22;1667;53.238;10.394;2023-01-15T07:10:24;8.00;99.90
3310;DHT22;1667;53.238;10.394;2023-01-15T07:15:22;8.00;99.90
3310;DHT22;1667;53.238;10.394;2023-01-15T07:20:21;8.00;99.90
3310;DHT22;1667;53.238;10.394;2023-01-15T07:25:19;8.00;99.90
3310;DHT22;1667;53.238;10.394;2023-01-15T07:30:19;8.00;99.90
3310;DHT22;1667;53.238;10.394;2023-01-15T07:35:18;7.90;99.90
3310;DHT22;1667;53.238;10.394;2023-01-15T07:40:17;7.90;99.90
3310;DHT22;1667;53.238;10.394;2023-01-15T07:45:15;7.90;99.90
3310;DHT22;1667;53.238;10.394;2023-01-15T07:50:33;7.90;99.90
3310;DHT22;1667;53.238;10.394;2023-01-15T07:55:32;7.90;99.90
3310;DHT22;1667;53.238;10.394;2023-01-15T08:00:32;7.80;99.90
3310;DHT22;1667;53.238;10.394;2023-01-15T08:05:30;7.70;99.90
3310;DHT22;1667;53.238;10.394;2023-01-15T08:10:30;7.70;99.90
3310;DHT22;1667;53.238;10.394;2023-01-15T08:15:49;7.70;99.90
3310;DHT22;1667;53.238;10.394;2023-01-15T08:20:47;7.70;99.90
3310;DHT22;1667;53.238;10.394;2023-01-15T08:25:47;7.80;99.90
3310;DHT22;1667;53.238;10.394;2023-01-15T08:30:46;7.80;99.90
3310;DHT22;1667;53.238;10.394;2023-01-15T08:35:44;7.80;99.90
3310;DHT22;1667;53.238;10.394;2023-01-15T08:40:43;7.80;99.90
3310;DHT22;1667;53.238;10.394;2023-01-15T08:45:57;7.80;99.90
3310;DHT22;1667;53.238;10.394;2023-01-15T08:50:56;7.80;99.90
3310;DHT22;1667;53.238;10.394;2023-01-15T08:55:55;7.80;99.90
3310;DHT22;1667;53.238;10.394;2023-01-15T09:00:53;7.90;99.90
3310;DHT22;1667;53.238;10.394;2023-01-15T09:05:53;8.00;99.90
3310;DHT22;1667;53.238;10.394;2023-01-15T09:10:55;8.00;99.90
3310;DHT22;1667;53.238;10.394;2023-01-15T09:15:58;8.10;99.90
3310;DHT22;1667;53.238;10.394;2023-01-15T09:20:58;8.10;99.90
3310;DHT22;1667;53.238;10.394;2023-01-15T09:25:58;8.40;99.90
3310;DHT22;1667;53.238;10.394;2023-01-15T09:30:56;8.20;99.90
3310;DHT22;1667;53.238;10.394;2023-01-15T09:35:55;8.20;99.90
3310;DHT22;1667;53.238;10.394;2023-01-15T09:40:58;8.10;99.90
3310;DHT22;1667;53.238;10.394;2023-01-15T09:46:02;8.50;99.90
3310;DHT22;1667;53.238;10.394;2023-01-15T09:51:15;8.10;99.90
3310;DHT22;1667;53.238;10.394;2023-01-15T09:56:19;8.10;99.90
3310;DHT22;1667;53.238;10.394;2023-01-15T10:01:25;8.30;99.90
3310;DHT22;1667;53.238;10.394;2023-01-15T10:06:26;8.10;99.90
3310;DHT22;1667;53.238;10.394;2023-01-15T10:11:37;8.10;99.90
3310;DHT22;1667;53.238;10.394;2023-01-15T10:17:18;8.00;99.90
3310;DHT22;1667;53.238;10.394;2023-01-15T10:22:27;8.00;99.90
3310;DHT22;1667;53.238;10.394;2023-01-15T10:27:30;8.00;99.90
3310;DHT22;1667;53.238;10.394;2023-01-15T10:32:37;7.90;99.90
3310;DHT22;1667;53.238;10.394;2023-01-15T10:38:04;7.90;99.90
3310;DHT22;1667;53.238;10.394;2023-01-15T10:43:10;7.90;99.90
3310;DHT22;1667;53.238;10.394;2023-01-15T10:48:18;7.90;99.90
3310;DHT22;1667;53.238;10.394;2023-01-15T10:53:26;8.00;99.90
3310;DHT22;1667;53.238;10.394;2023-01-15T10:58:33;8.00;99.90
3310;DHT22;1667;53.238;10.394;2023-01-15T11:03:35;8.10;99.90
3310;DHT22;1667;53.238;10.394;2023-01-15T11:08:35;8.20;99.90
3310;DHT22;1667;53.238;10.394;2023-01-15T11:13:55;8.20;99.90
3310;DHT22;1667;53.238;10.394;2023-01-15T11:19:24;8.20;99.90
3310;DHT22;1667;53.238;10.394;2023-01-15T11:24:37;8.20;99.90
3310;DHT22;1667;53.238;10.394;2023-01-15T11:29:43;8.30;99.90
3310;DHT22;1667;53.238;10.394;2023-01-15T11:34:51;8.40;99.90
3310;DHT22;1667;53.238;10.394;2023-01-15T11:39:54;8.50;99.90
3310;DHT22;1667;53.238;10.394;2023-01-15T11:44:56;8.60;99.90
3310;DHT22;1667;53.238;10.394;2023-01-15T11:50:30;8.70;99.90
3310;DHT22;1667;53.238;10.394;2023-01-15T11:55:50;8.80;99.90
3310;DHT22;1667;53.238;10.394;2023-01-15T12:00:51;8.90;99.90
3310;DHT22;1667;53.238;10.394;2023-01-15T12:05:57;9.00;99.90
3310;DHT22;1667;53.238;10.394;2023-01-15T12:11:00;8.90;99.90
3310;DHT22;1667;53.238;10.394;2023-01-15T12:16:29;9.00;99.90
3310;DHT22;1667;53.238;10.394;2023-01-15T12:22:12;9.00;99.90
3310;DHT22;1667;53.238;10.394;2023-01-15T12:27:32;9.00;99.90
3310;DHT22;1667;53.238;10.394;2023-01-15T12:32:37;9.00;99.90
3310;DHT22;1667;53.238;10.394;2023-01-15T12:37:42;9.10;99.90
3310;DHT22;1667;53.238;10.394;2023-01-15T12:43:18;9.10;99.90
3310;DHT22;1667;53.238;10.394;2023-01-15T12:48:45;9.10;99.90
3310;DHT22;1667;53.238;10.394;2023-01-15T12:53:48;9.10;99.90
3310;DHT22;1667;53.238;10.394;2023-01-15T12:58:51;9.00;99.90
3310;DHT22;1667;53.238;10.394;2023-01-15T13:04:03;9.00;99.90
3310;DHT22;1667;53.238;10.394;2023-01-15T13:09:05;9.00;99.90
3310;DHT22;1667;53.238;10.394;2023-01-15T13:14:13;9.00;99.90
3310;DHT22;1667;53.238;10.394;2023-01-15T13:19:25;9.00;99.90
3310;DHT22;1667;53.238;10.394;2023-01-15T13:24:49;9.00;99.90
3310;DHT22;1667;53.238;10.394;2023-01-15T13:30:02;9.00;99.90
3310;DHT22;1667;53.238;10.394;2023-01-15T13:35:10;8.90;99.90
3310;DHT22;1667;53.238;10.394;2023-01-15T13:40:18;8.90;99.90
3310;DHT22;1667;53.238;10.394;2023-01-15T13:45:23;8.90;99.90
3310;DHT22;1667;53.238;10.394;2023-01-15T13:50:30;8.90;99.90
3310;DHT22;1667;53.238;10.394;2023-01-15T13:55:30;8.90;99.90
3310;DHT22;1667;53.238;10.394;2023-01-15T14:00:31;8.90;99.90
3310;DHT22;1667;53.238;10.394;2023-01-15T14:05:33;8.90;99.90
3310;DHT22;1667;53.238;10.394;2023-01-15T14:10:35;8.80;99.90
3310;DHT22;1667;53.238;10.394;2023-01-15T14:15:42;8.80;99.90
3310;DHT22;1667;53.238;10.394;2023-01-15T14:21:06;8.70;99.90
3310;DHT22;1667;53.238;10.394;2023-01-15T14:26:13;8.60;99.90
3310;DHT22;1667;53.238;10.394;2023-01-15T14:31:39;8.60;99.90
3310;DHT22;1667;53.238;10.394;2023-01-15T14:36:49;8.60;99.90
3310;DHT22;1667;53.238;10.394;2023-01-15T14:41:55;8.50;99.90
3310;DHT22;1667;53.238;10.394;2023-01-15T14:54:06;8.40;99.90
3310;DHT22;1667;53.238;10.394;2023-01-15T14:59:09;8.40;99.90
3310;DHT22;1667;53.238;10.394;2023-01-15T15:04:21;8.30;99.90
3310;DHT22;1667;53.238;10.394;2023-01-15T15:09:34;8.30;99.90
3310;DHT22;1667;53.238;10.394;2023-01-15T15:14:37;8.30;99.90
3310;DHT22;1667;53.238;10.394;2023-01-15T15:19:38;8.20;99.90
3310;DHT22;1667;53.238;10.394;2023-01-15T15:24:44;8.20;99.90
3310;DHT22;1667;53.238;10.394;2023-01-15T15:29:44;8.20;99.90
3310;DHT22;1667;53.238;10.394;2023-01-15T15:34:44;8.50;99.90
3310;DHT22;1667;53.238;10.394;2023-01-15T15:39:51;8.10;99.90
3310;DHT22;1667;53.238;10.394;2023-01-15T15:44:53;8.20;99.90
3310;DHT22;1667;53.238;10.394;2023-01-15T15:50:20;8.20;99.90
3310;DHT22;1667;53.238;10.394;2023-01-15T15:55:21;8.20;99.90
3310;DHT22;1667;53.238;10.394;2023-01-15T16:00:26;8.20;99.90
3310;DHT22;1667;53.238;10.394;2023-01-15T16:05:28;8.20;99.90
3310;DHT22;1667;53.238;10.394;2023-01-15T16:10:30;8.30;99.90
3310;DHT22;1667;53.238;10.394;2023-01-15T16:15:32;8.30;99.90
3310;DHT22;1667;53.238;10.394;2023-01-15T16:20:31;8.20;99.90
3310;DHT22;1667;53.238;10.394;2023-01-15T16:25:33;8.30;99.90
3310;DHT22;1667;53.238;10.394;2023-01-15T16:30:33;8.30;99.90
3310;DHT22;1667;53.238;10.394;2023-01-15T16:35:33;8.20;99.90
3310;DHT22;1667;53.238;10.394;2023-01-15T16:40:36;8.30;99.90
3310;DHT22;1667;53.238;10.394;2023-01-15T16:45:36;8.20;99.90
3310;DHT22;1667;53.238;10.394;2023-01-15T16:50:39;8.30;99.90
3310;DHT22;1667;53.238;10.394;2023-01-15T16:55:44;8.20;99.90
3310;DHT22;1667;53.238;10.394;2023-01-15T17:00:45;8.20;99.90
3310;DHT22;1667;53.238;10.394;2023-01-15T17:05:44;8.20;99.90
3310;DHT22;1667;53.238;10.394;2023-01-15T17:10:55;8.10;99.90
3310;DHT22;1667;53.238;10.394;2023-01-15T17:16:01;8.20;99.90
3310;DHT22;1667;53.238;10.394;2023-01-15T17:21:00;8.20;99.90
3310;DHT22;1667;53.238;10.394;2023-01-15T17:26:01;8.20;99.90
3310;DHT22;1667;53.238;10.394;2023-01-15T17:31:01;8.40;99.90
3310;DHT22;1667;53.238;10.394;2023-01-15T17:35:59;8.20;99.90
3310;DHT22;1667;53.238;10.394;2023-01-15T17:40:59;8.20;99.90
3310;DHT22;1667;53.238;10.394;2023-01-15T17:46:01;8.30;99.90
3310;DHT22;1667;53.238;10.394;2023-01-15T17:51:00;8.30;99.90
3310;DHT22;1667;53.238;10.394;2023-01-15T17:56:00;8.20;99.90
3310;DHT22;1667;53.238;10.394;2023-01-15T18:01:18;8.20;99.90
3310;DHT22;1667;53.238;10.394;2023-01-15T18:06:34;8.20;99.90
3310;DHT22;1667;53.238;10.394;2023-01-15T18:11:34;8.10;99.90
3310;DHT22;1667;53.238;10.394;2023-01-15T18:16:33;8.10;99.90
3310;DHT22;1667;53.238;10.394;2023-01-15T18:21:35;8.10;99.90
3310;DHT22;1667;53.238;10.394;2023-01-15T18:26:36;8.10;99.90
3310;DHT22;1667;53.238;10.394;2023-01-15T18:31:36;8.10;99.90
3310;DHT22;1667;53.238;10.394;2023-01-15T18:36:35;8.00;99.90
3310;DHT22;1667;53.238;10.394;2023-01-15T18:41:35;8.00;99.90
3310;DHT22;1667;53.238;10.394;2023-01-15T18:46:54;8.10;99.90
3310;DHT22;1667;53.238;10.394;2023-01-15T18:51:53;8.10;99.90
3310;DHT22;1667;53.238;10.394;2023-01-15T18:57:07;8.10;99.90
3310;DHT22;1667;53.238;10.394;2023-01-15T19:02:06;8.00;99.90
3310;DHT22;1667;53.238;10.394;2023-01-15T19:07:06;8.00;99.90
3310;DHT22;1667;53.238;10.394;2023-01-15T19:12:07;8.00;99.90
3310;DHT22;1667;53.238;10.394;2023-01-15T19:17:06;8.00;99.90
3310;DHT22;1667;53.238;10.394;2023-01-15T19:22:22;7.90;99.90
3310;DHT22;1667;53.238;10.394;2023-01-15T19:27:39;7.90;99.90
3310;DHT22;1667;53.238;10.394;2023-01-15T19:32:37;7.80;99.90
3310;DHT22;1667;53.238;10.394;2023-01-15T19:37:36;7.80;99.90
3310;DHT22;1667;53.238;10.394;2023-01-15T19:42:36;7.80;99.90
3310;DHT22;1667;53.238;10.394;2023-01-15T19:47:53;7.80;99.90
3310;DHT22;1667;53.238;10.394;2023-01-15T19:53:10;7.90;99.90
3310;DHT22;1667;53.238;10.394;2023-01-15T19:58:11;7.90;99.90
3310;DHT22;1667;53.238;10.394;2023-01-15T20:03:16;7.90;99.90
3310;DHT22;1667;53.238;10.394;2023-01-15T20:08:15;7.90;99.90
3310;DHT22;1667;53.238;10.394;2023-01-15T20:13:16;7.90;99.90
3310;DHT22;1667;53.238;10.394;2023-01-15T20:18:35;7.90;99.90
3310;DHT22;1667;53.238;10.394;2023-01-15T20:23:34;7.90;99.90
3310;DHT22;1667;53.238;10.394;2023-01-15T20:28:33;7.90;99.90
3310;DHT22;1667;53.238;10.394;2023-01-15T20:33:32;7.90;99.90
3310;DHT22;1667;53.238;10.394;2023-01-15T20:38:32;7.90;99.90
3310;DHT22;1667;53.238;10.394;2023-01-15T20:43:31;7.90;99.90
3310;DHT22;1667;53.238;10.394;2023-01-15T20:48:47;7.90;99.90
3310;DHT22;1667;53.238;10.394;2023-01-15T20:54:04;7.90;99.90
3310;DHT22;1667;53.238;10.394;2023-01-15T20:59:04;7.90;99.90
3310;DHT22;1667;53.238;10.394;2023-01-15T21:04:02;7.90;99.90
3310;DHT22;1667;53.238;10.394;2023-01-15T21:09:01;7.90;99.90
3310;DHT22;1667;53.238;10.394;2023-01-15T21:14:01;8.00;99.90
3310;DHT22;1667;53.238;10.394;2023-01-15T21:18:59;8.00;99.90
3310;DHT22;1667;53.238;10.394;2023-01-15T21:24:00;8.00;99.90
3310;DHT22;1667;53.238;10.394;2023-01-15T21:29:00;8.00;99.90
3310;DHT22;1667;53.238;10.394;2023-01-15T21:33:59;8.00;99.90
3310;DHT22;1667;53.238;10.394;2023-01-15T21:38:57;8.00;99.90
3310;DHT22;1667;53.238;10.394;2023-01-15T21:43:56;7.90;99.90
3310;DHT22;1667;53.238;10.394;2023-01-15T21:49:13;7.90;99.90
3310;DHT22;1667;53.238;10.394;2023-01-15T21:54:12;8.00;99.90
3310;DHT22;1667;53.238;10.394;2023-01-15T21:59:11;7.80;99.90
3310;DHT22;1667;53.238;10.394;2023-01-15T22:04:10;7.70;99.90
3310;DHT22;1667;53.238;10.394;2023-01-15T22:09:09;7.80;99.90
3310;DHT22;1667;53.238;10.394;2023-01-15T22:14:10;7.70;99.90
3310;DHT22;1667;53.238;10.394;2023-01-15T22:19:10;7.70;99.90
3310;DHT22;1667;53.238;10.394;2023-01-15T22:24:17;7.80;99.90
3310;DHT22;1667;53.238;10.394;2023-01-15T22:29:16;7.90;99.90
3310;DHT22;1667;53.238;10.394;2023-01-15T22:34:14;8.00;99.90
3310;DHT22;1667;53.238;10.394;2023-01-15T22:39:13;7.90;99.90
3310;DHT22;1667;53.238;10.394;2023-01-15T22:44:13;7.90;99.90
3310;DHT22;1667;53.238;10.394;2023-01-15T22:49:12;8.00;99.90
3310;DHT22;1667;53.238;10.394;2023-01-15T22:54:10;8.00;99.90
3310;DHT22;1667;53.238;10.394;2023-01-15T22:59:09;8.00;99.90
3310;DHT22;1667;53.238;10.394;2023-01-15T23:04:12;8.10;99.90
3310;DHT22;1667;53.238;10.394;2023-01-15T23:09:12;8.20;99.90
3310;DHT22;1667;53.238;10.394;2023-01-15T23:14:12;8.40;99.90
3310;DHT22;1667;53.238;10.394;2023-01-15T23:19:12;8.20;99.90
3310;DHT22;1667;53.238;10.394;2023-01-15T23:24:11;8.10;99.90
3310;DHT22;1667;53.238;10.394;2023-01-15T23:29:09;8.10;99.90
3310;DHT22;1667;53.238;10.394;2023-01-15T23:34:08;8.10;99.90
3310;DHT22;1667;53.238;10.394;2023-01-15T23:39:09;8.10;99.90
3310;DHT22;1667;53.238;10.394;2023-01-15T23:44:12;8.10;99.90
3310;DHT22;1667;53.238;10.394;2023-01-15T23:49:28;8.20;99.90
3310;DHT22;1667;53.238;10.394;2023-01-15T23:54:28;8.20;99.90
3310;DHT22;1667;53.238;10.394;2023-01-15T23:59:28;8.40;99.90
